sensor_id;sensor_type;location;lat;lon;timestamp;P1;durP1;ratioP1;P2;durP2;ratioP2
81382;SDS011;70834;37.534;-122.308;2023-10-19T00:02:49;8.35;;;2.13;;
81382;SDS011;70834;37.534;-122.308;2023-10-19T00:05:15;4.60;;;1.77;;
81382;SDS011;70834;37.534;-122.308;2023-10-19T00:07:37;3.88;;;1.83;;
81382;SDS011;70834;37.534;-122.308;2023-10-19T00:09:59;3.10;;;1.70;;
81382;SDS011;70834;37.534;-122.308;2023-10-19T00:12:24;2.72;;;1.63;;
81382;SDS011;70834;37.534;-122.308;2023-10-19T00:14:46;6.20;;;2.33;;
81382;SDS011;70834;37.534;-122.308;2023-10-19T00:17:08;4.63;;;1.55;;
81382;SDS011;70834;37.534;-122.308;2023-10-19T00:19:32;10.73;;;2.15;;
81382;SDS011;70834;37.534;-122.308;2023-10-19T00:21:59;2.30;;;1.55;;
81382;SDS011;70834;37.534;-122.308;2023-10-19T00:24:28;2.85;;;1.77;;
81382;SDS011;70834;37.534;-122.308;2023-10-19T00:26:51;2.90;;;1.50;;
81382;SDS011;70834;37.534;-122.308;2023-10-19T00:29:14;4.03;;;1.67;;
81382;SDS011;70834;37.534;-122.308;2023-10-19T00:31:56;4.45;;;1.60;;
81382;SDS011;70834;37.534;-122.308;2023-10-19T00:34:18;2.60;;;1.50;;
81382;SDS011;70834;37.534;-122.308;2023-10-19T00:36:41;2.78;;;1.67;;
81382;SDS011;70834;37.534;-122.308;2023-10-19T00:39:02;3.47;;;1.50;;
81382;SDS011;70834;37.534;-122.308;2023-10-19T00:41:34;2.92;;;1.90;;
81382;SDS011;70834;37.534;-122.308;2023-10-19T00:43:58;3.53;;;1.70;;
81382;SDS011;70834;37.534;-122.308;2023-10-19T00:46:24;5.47;;;2.50;;
81382;SDS011;70834;37.534;-122.308;2023-10-19T00:49:03;4.90;;;2.47;;
81382;SDS011;70834;37.534;-122.308;2023-10-19T00:51:31;7.47;;;3.00;;
81382;SDS011;70834;37.534;-122.308;2023-10-19T00:53:56;5.28;;;2.60;;
81382;SDS011;70834;37.534;-122.308;2023-10-19T00:56:24;8.50;;;2.60;;
81382;SDS011;70834;37.534;-122.308;2023-10-19T00:58:52;3.88;;;2.85;;
81382;SDS011;70834;37.534;-122.308;2023-10-19T01:01:20;7.28;;;2.83;;
81382;SDS011;70834;37.534;-122.308;2023-10-19T01:03:45;6.65;;;2.42;;
81382;SDS011;70834;37.534;-122.308;2023-10-19T01:06:12;4.50;;;2.60;;
81382;SDS011;70834;37.534;-122.308;2023-10-19T01:08:34;5.47;;;2.60;;
81382;SDS011;70834;37.534;-122.308;2023-10-19T01:11:01;5.43;;;2.83;;
81382;SDS011;70834;37.534;-122.308;2023-10-19T01:13:24;5.45;;;2.90;;
81382;SDS011;70834;37.534;-122.308;2023-10-19T01:15:48;6.93;;;3.38;;
81382;SDS011;70834;37.534;-122.308;2023-10-19T01:18:10;6.90;;;2.75;;
81382;SDS011;70834;37.534;-122.308;2023-10-19T01:20:34;5.60;;;2.75;;
81382;SDS011;70834;37.534;-122.308;2023-10-19T01:28:27;6.18;;;1.70;;
81382;SDS011;70834;37.534;-122.308;2023-10-19T01:31:02;3.42;;;2.13;;
81382;SDS011;70834;37.534;-122.308;2023-10-19T01:33:27;4.95;;;2.45;;
81382;SDS011;70834;37.534;-122.308;2023-10-19T01:35:51;5.90;;;2.30;;
81382;SDS011;70834;37.534;-122.308;2023-10-19T01:38:51;7.97;;;2.70;;
81382;SDS011;70834;37.534;-122.308;2023-10-19T01:41:18;12.43;;;2.55;;
81382;SDS011;70834;37.534;-122.308;2023-10-19T01:43:41;16.75;;;2.65;;
81382;SDS011;70834;37.534;-122.308;2023-10-19T01:46:07;8.40;;;2.83;;
81382;SDS011;70834;37.534;-122.308;2023-10-19T01:48:42;6.00;;;2.50;;
81382;SDS011;70834;37.534;-122.308;2023-10-19T01:51:05;8.18;;;2.20;;
81382;SDS011;70834;37.534;-122.308;2023-10-19T01:53:26;5.57;;;2.50;;
81382;SDS011;70834;37.534;-122.308;2023-10-19T01:55:50;6.50;;;2.28;;
81382;SDS011;70834;37.534;-122.308;2023-10-19T01:58:17;9.40;;;3.10;;
81382;SDS011;70834;37.534;-122.308;2023-10-19T02:00:39;6.97;;;2.63;;
81382;SDS011;70834;37.534;-122.308;2023-10-19T02:03:09;8.88;;;3.35;;
81382;SDS011;70834;37.534;-122.308;2023-10-19T02:05:30;6.30;;;2.67;;
81382;SDS011;70834;37.534;-122.308;2023-10-19T02:07:59;6.95;;;2.85;;
81382;SDS011;70834;37.534;-122.308;2023-10-19T02:10:21;5.38;;;2.80;;
81382;SDS011;70834;37.534;-122.308;2023-10-19T02:12:42;11.70;;;2.88;;
81382;SDS011;70834;37.534;-122.308;2023-10-19T02:15:06;6.32;;;2.88;;
81382;SDS011;70834;37.534;-122.308;2023-10-19T02:17:29;7.45;;;2.67;;
81382;SDS011;70834;37.534;-122.308;2023-10-19T02:19:51;6.25;;;2.65;;
81382;SDS011;70834;37.534;-122.308;2023-10-19T02:22:13;5.80;;;2.60;;
81382;SDS011;70834;37.534;-122.308;2023-10-19T02:24:34;7.90;;;2.88;;
81382;SDS011;70834;37.534;-122.308;2023-10-19T02:26:56;4.95;;;2.63;;
81382;SDS011;70834;37.534;-122.308;2023-10-19T02:29:21;11.73;;;4.07;;
81382;SDS011;70834;37.534;-122.308;2023-10-19T02:31:43;10.60;;;2.92;;
81382;SDS011;70834;37.534;-122.308;2023-10-19T02:34:05;9.13;;;2.20;;
81382;SDS011;70834;37.534;-122.308;2023-10-19T02:36:29;6.03;;;2.63;;
81382;SDS011;70834;37.534;-122.308;2023-10-19T02:38:52;10.02;;;2.92;;
81382;SDS011;70834;37.534;-122.308;2023-10-19T02:41:16;8.20;;;2.97;;
81382;SDS011;70834;37.534;-122.308;2023-10-19T02:43:39;5.65;;;2.78;;
81382;SDS011;70834;37.534;-122.308;2023-10-19T02:46:03;4.90;;;2.38;;
81382;SDS011;70834;37.534;-122.308;2023-10-19T02:48:25;3.88;;;1.95;;
81382;SDS011;70834;37.534;-122.308;2023-10-19T02:50:46;5.38;;;2.30;;
81382;SDS011;70834;37.534;-122.308;2023-10-19T02:53:09;3.85;;;2.83;;
81382;SDS011;70834;37.534;-122.308;2023-10-19T02:55:33;10.23;;;3.08;;
81382;SDS011;70834;37.534;-122.308;2023-10-19T02:57:55;10.32;;;2.65;;
81382;SDS011;70834;37.534;-122.308;2023-10-19T03:00:19;5.32;;;2.60;;
81382;SDS011;70834;37.534;-122.308;2023-10-19T03:02:41;3.75;;;2.45;;
81382;SDS011;70834;37.534;-122.308;2023-10-19T03:05:02;5.38;;;2.53;;
81382;SDS011;70834;37.534;-122.308;2023-10-19T03:07:33;8.20;;;2.25;;
81382;SDS011;70834;37.534;-122.308;2023-10-19T03:09:54;5.28;;;2.20;;
81382;SDS011;70834;37.534;-122.308;2023-10-19T03:12:16;6.47;;;2.30;;
81382;SDS011;70834;37.534;-122.308;2023-10-19T03:14:38;7.05;;;2.60;;
81382;SDS011;70834;37.534;-122.308;2023-10-19T03:17:01;3.55;;;2.40;;
81382;SDS011;70834;37.534;-122.308;2023-10-19T03:19:24;6.75;;;2.28;;
81382;SDS011;70834;37.534;-122.308;2023-10-19T03:21:46;4.90;;;2.85;;
81382;SDS011;70834;37.534;-122.308;2023-10-19T03:24:10;5.07;;;2.33;;
81382;SDS011;70834;37.534;-122.308;2023-10-19T03:26:50;4.22;;;2.40;;
81382;SDS011;70834;37.534;-122.308;2023-10-19T03:29:15;8.70;;;2.53;;
81382;SDS011;70834;37.534;-122.308;2023-10-19T03:31:43;8.40;;;2.50;;
81382;SDS011;70834;37.534;-122.308;2023-10-19T03:34:05;8.35;;;2.30;;
81382;SDS011;70834;37.534;-122.308;2023-10-19T03:36:26;4.57;;;2.38;;
81382;SDS011;70834;37.534;-122.308;2023-10-19T03:38:48;4.07;;;2.20;;
81382;SDS011;70834;37.534;-122.308;2023-10-19T03:41:13;4.95;;;1.95;;
81382;SDS011;70834;37.534;-122.308;2023-10-19T03:43:35;6.22;;;2.75;;
81382;SDS011;70834;37.534;-122.308;2023-10-19T03:46:03;4.23;;;2.40;;
81382;SDS011;70834;37.534;-122.308;2023-10-19T03:48:34;4.32;;;1.92;;
81382;SDS011;70834;37.534;-122.308;2023-10-19T03:50:59;3.53;;;2.20;;
81382;SDS011;70834;37.534;-122.308;2023-10-19T03:53:22;6.82;;;2.10;;
81382;SDS011;70834;37.534;-122.308;2023-10-19T03:55:44;4.15;;;2.03;;
81382;SDS011;70834;37.534;-122.308;2023-10-19T03:58:07;3.60;;;2.33;;
81382;SDS011;70834;37.534;-122.308;2023-10-19T04:00:29;5.07;;;2.20;;
81382;SDS011;70834;37.534;-122.308;2023-10-19T04:02:53;5.78;;;2.88;;
81382;SDS011;70834;37.534;-122.308;2023-10-19T04:05:15;4.20;;;2.30;;
81382;SDS011;70834;37.534;-122.308;2023-10-19T04:07:42;5.93;;;2.47;;
81382;SDS011;70834;37.534;-122.308;2023-10-19T04:10:04;4.53;;;1.92;;
81382;SDS011;70834;37.534;-122.308;2023-10-19T04:12:28;3.00;;;1.92;;
81382;SDS011;70834;37.534;-122.308;2023-10-19T04:17:37;4.72;;;1.92;;
81382;SDS011;70834;37.534;-122.308;2023-10-19T04:20:19;9.07;;;3.08;;
81382;SDS011;70834;37.534;-122.308;2023-10-19T04:22:40;3.90;;;2.47;;
81382;SDS011;70834;37.534;-122.308;2023-10-19T04:25:02;2.83;;;2.00;;
81382;SDS011;70834;37.534;-122.308;2023-10-19T04:27:26;3.50;;;2.28;;
81382;SDS011;70834;37.534;-122.308;2023-10-19T04:29:49;4.43;;;2.17;;
81382;SDS011;70834;37.534;-122.308;2023-10-19T04:32:10;2.85;;;2.00;;
81382;SDS011;70834;37.534;-122.308;2023-10-19T04:34:34;5.32;;;2.30;;
81382;SDS011;70834;37.534;-122.308;2023-10-19T04:36:59;3.83;;;2.25;;
81382;SDS011;70834;37.534;-122.308;2023-10-19T04:39:23;4.80;;;2.20;;
81382;SDS011;70834;37.534;-122.308;2023-10-19T04:41:44;3.53;;;1.90;;
81382;SDS011;70834;37.534;-122.308;2023-10-19T04:44:08;5.88;;;2.25;;
81382;SDS011;70834;37.534;-122.308;2023-10-19T04:46:30;5.70;;;2.45;;
81382;SDS011;70834;37.534;-122.308;2023-10-19T04:49:11;5.05;;;1.73;;
81382;SDS011;70834;37.534;-122.308;2023-10-19T04:51:33;3.45;;;1.90;;
81382;SDS011;70834;37.534;-122.308;2023-10-19T04:53:59;4.13;;;2.28;;
81382;SDS011;70834;37.534;-122.308;2023-10-19T04:56:21;5.65;;;2.10;;
81382;SDS011;70834;37.534;-122.308;2023-10-19T04:58:42;3.40;;;2.03;;
81382;SDS011;70834;37.534;-122.308;2023-10-19T05:01:04;5.15;;;1.90;;
81382;SDS011;70834;37.534;-122.308;2023-10-19T05:03:25;6.68;;;2.55;;
81382;SDS011;70834;37.534;-122.308;2023-10-19T05:05:48;2.95;;;2.08;;
81382;SDS011;70834;37.534;-122.308;2023-10-19T05:08:09;5.00;;;2.40;;
81382;SDS011;70834;37.534;-122.308;2023-10-19T05:10:31;5.15;;;2.30;;
81382;SDS011;70834;37.534;-122.308;2023-10-19T05:12:53;3.83;;;2.30;;
81382;SDS011;70834;37.534;-122.308;2023-10-19T05:15:15;4.90;;;2.53;;
81382;SDS011;70834;37.534;-122.308;2023-10-19T05:17:36;4.28;;;2.80;;
81382;SDS011;70834;37.534;-122.308;2023-10-19T05:19:59;5.35;;;2.38;;
81382;SDS011;70834;37.534;-122.308;2023-10-19T05:22:20;4.18;;;2.45;;
81382;SDS011;70834;37.534;-122.308;2023-10-19T05:24:45;4.13;;;2.38;;
81382;SDS011;70834;37.534;-122.308;2023-10-19T05:27:06;5.80;;;2.60;;
81382;SDS011;70834;37.534;-122.308;2023-10-19T05:29:31;4.78;;;2.60;;
81382;SDS011;70834;37.534;-122.308;2023-10-19T05:34:18;4.35;;;2.30;;
81382;SDS011;70834;37.534;-122.308;2023-10-19T05:36:43;7.78;;;2.38;;
81382;SDS011;70834;37.534;-122.308;2023-10-19T05:39:09;5.75;;;2.60;;
81382;SDS011;70834;37.534;-122.308;2023-10-19T05:41:30;8.20;;;2.78;;
81382;SDS011;70834;37.534;-122.308;2023-10-19T05:43:51;4.28;;;2.38;;
81382;SDS011;70834;37.534;-122.308;2023-10-19T05:46:13;4.47;;;2.30;;
81382;SDS011;70834;37.534;-122.308;2023-10-19T05:48:38;5.35;;;2.45;;
81382;SDS011;70834;37.534;-122.308;2023-10-19T05:51:00;4.47;;;2.42;;
81382;SDS011;70834;37.534;-122.308;2023-10-19T05:53:21;5.75;;;3.25;;
81382;SDS011;70834;37.534;-122.308;2023-10-19T05:55:43;4.15;;;2.20;;
81382;SDS011;70834;37.534;-122.308;2023-10-19T05:58:06;5.43;;;2.33;;
81382;SDS011;70834;37.534;-122.308;2023-10-19T06:00:27;9.48;;;2.33;;
81382;SDS011;70834;37.534;-122.308;2023-10-19T06:02:48;3.97;;;2.17;;
81382;SDS011;70834;37.534;-122.308;2023-10-19T06:05:10;6.03;;;2.00;;
81382;SDS011;70834;37.534;-122.308;2023-10-19T06:07:33;5.60;;;2.22;;
81382;SDS011;70834;37.534;-122.308;2023-10-19T06:09:54;5.85;;;2.60;;
81382;SDS011;70834;37.534;-122.308;2023-10-19T06:12:16;3.30;;;2.00;;
81382;SDS011;70834;37.534;-122.308;2023-10-19T06:14:37;3.90;;;2.33;;
81382;SDS011;70834;37.534;-122.308;2023-10-19T06:16:59;4.32;;;2.10;;
81382;SDS011;70834;37.534;-122.308;2023-10-19T06:19:21;5.85;;;2.40;;
81382;SDS011;70834;37.534;-122.308;2023-10-19T06:21:43;5.05;;;2.00;;
81382;SDS011;70834;37.534;-122.308;2023-10-19T06:24:04;4.13;;;2.28;;
81382;SDS011;70834;37.534;-122.308;2023-10-19T06:26:26;8.10;;;2.28;;
81382;SDS011;70834;37.534;-122.308;2023-10-19T06:28:47;7.03;;;2.15;;
81382;SDS011;70834;37.534;-122.308;2023-10-19T06:31:11;7.18;;;2.65;;
81382;SDS011;70834;37.534;-122.308;2023-10-19T06:33:34;9.15;;;3.08;;
81382;SDS011;70834;37.534;-122.308;2023-10-19T06:35:56;7.60;;;2.28;;
81382;SDS011;70834;37.534;-122.308;2023-10-19T06:38:19;7.65;;;3.03;;
81382;SDS011;70834;37.534;-122.308;2023-10-19T06:40:40;3.65;;;2.22;;
81382;SDS011;70834;37.534;-122.308;2023-10-19T06:43:02;4.35;;;2.03;;
81382;SDS011;70834;37.534;-122.308;2023-10-19T06:45:25;4.95;;;2.45;;
81382;SDS011;70834;37.534;-122.308;2023-10-19T06:47:48;4.03;;;2.00;;
81382;SDS011;70834;37.534;-122.308;2023-10-19T06:50:10;7.00;;;2.22;;
81382;SDS011;70834;37.534;-122.308;2023-10-19T06:52:33;4.80;;;2.10;;
81382;SDS011;70834;37.534;-122.308;2023-10-19T06:54:56;5.32;;;2.28;;
81382;SDS011;70834;37.534;-122.308;2023-10-19T06:57:17;4.35;;;2.20;;
81382;SDS011;70834;37.534;-122.308;2023-10-19T06:59:39;5.05;;;2.20;;
81382;SDS011;70834;37.534;-122.308;2023-10-19T07:02:00;5.68;;;2.58;;
81382;SDS011;70834;37.534;-122.308;2023-10-19T07:04:22;5.95;;;2.30;;
81382;SDS011;70834;37.534;-122.308;2023-10-19T07:06:43;4.40;;;2.40;;
81382;SDS011;70834;37.534;-122.308;2023-10-19T07:09:05;4.00;;;2.00;;
81382;SDS011;70834;37.534;-122.308;2023-10-19T07:11:26;4.32;;;2.42;;
81382;SDS011;70834;37.534;-122.308;2023-10-19T07:13:48;5.20;;;2.50;;
81382;SDS011;70834;37.534;-122.308;2023-10-19T07:16:12;5.95;;;2.03;;
81382;SDS011;70834;37.534;-122.308;2023-10-19T07:18:34;4.75;;;2.30;;
81382;SDS011;70834;37.534;-122.308;2023-10-19T07:20:57;4.65;;;2.40;;
81382;SDS011;70834;37.534;-122.308;2023-10-19T07:23:25;8.13;;;2.83;;
81382;SDS011;70834;37.534;-122.308;2023-10-19T07:25:50;5.45;;;2.20;;
81382;SDS011;70834;37.534;-122.308;2023-10-19T07:28:20;7.50;;;2.35;;
81382;SDS011;70834;37.534;-122.308;2023-10-19T07:30:43;5.07;;;2.55;;
81382;SDS011;70834;37.534;-122.308;2023-10-19T07:33:05;4.68;;;2.30;;
81382;SDS011;70834;37.534;-122.308;2023-10-19T07:35:26;6.72;;;2.20;;
81382;SDS011;70834;37.534;-122.308;2023-10-19T07:37:48;4.10;;;2.53;;
81382;SDS011;70834;37.534;-122.308;2023-10-19T07:40:10;4.22;;;2.30;;
81382;SDS011;70834;37.534;-122.308;2023-10-19T07:42:35;5.95;;;2.50;;
81382;SDS011;70834;37.534;-122.308;2023-10-19T07:44:57;7.18;;;2.80;;
81382;SDS011;70834;37.534;-122.308;2023-10-19T07:47:18;7.80;;;2.30;;
81382;SDS011;70834;37.534;-122.308;2023-10-19T07:49:39;4.13;;;2.30;;
81382;SDS011;70834;37.534;-122.308;2023-10-19T07:52:01;4.60;;;2.17;;
81382;SDS011;70834;37.534;-122.308;2023-10-19T07:54:23;5.57;;;2.20;;
81382;SDS011;70834;37.534;-122.308;2023-10-19T07:56:45;5.07;;;2.15;;
81382;SDS011;70834;37.534;-122.308;2023-10-19T07:59:06;5.95;;;2.42;;
81382;SDS011;70834;37.534;-122.308;2023-10-19T08:01:28;4.90;;;2.10;;
81382;SDS011;70834;37.534;-122.308;2023-10-19T08:03:50;5.55;;;2.40;;
81382;SDS011;70834;37.534;-122.308;2023-10-19T08:06:12;6.82;;;2.42;;
81382;SDS011;70834;37.534;-122.308;2023-10-19T08:08:34;5.80;;;2.30;;
81382;SDS011;70834;37.534;-122.308;2023-10-19T08:10:55;7.90;;;2.30;;
81382;SDS011;70834;37.534;-122.308;2023-10-19T08:13:17;5.85;;;2.72;;
81382;SDS011;70834;37.534;-122.308;2023-10-19T08:15:38;5.68;;;2.70;;
81382;SDS011;70834;37.534;-122.308;2023-10-19T08:18:00;6.50;;;2.10;;
81382;SDS011;70834;37.534;-122.308;2023-10-19T08:20:22;4.13;;;2.30;;
81382;SDS011;70834;37.534;-122.308;2023-10-19T08:22:43;4.47;;;2.38;;
81382;SDS011;70834;37.534;-122.308;2023-10-19T08:25:08;3.13;;;2.30;;
81382;SDS011;70834;37.534;-122.308;2023-10-19T08:27:35;6.25;;;2.60;;
81382;SDS011;70834;37.534;-122.308;2023-10-19T08:29:58;6.80;;;2.33;;
81382;SDS011;70834;37.534;-122.308;2023-10-19T08:32:19;3.55;;;2.58;;
81382;SDS011;70834;37.534;-122.308;2023-10-19T08:34:41;8.90;;;2.42;;
81382;SDS011;70834;37.534;-122.308;2023-10-19T08:37:02;5.63;;;2.70;;
81382;SDS011;70834;37.534;-122.308;2023-10-19T08:39:27;4.32;;;2.38;;
81382;SDS011;70834;37.534;-122.308;2023-10-19T08:41:56;4.45;;;2.40;;
81382;SDS011;70834;37.534;-122.308;2023-10-19T08:44:19;4.68;;;2.67;;
81382;SDS011;70834;37.534;-122.308;2023-10-19T08:46:41;6.70;;;2.38;;
81382;SDS011;70834;37.534;-122.308;2023-10-19T08:49:03;5.00;;;2.80;;
81382;SDS011;70834;37.534;-122.308;2023-10-19T08:51:25;5.82;;;2.17;;
81382;SDS011;70834;37.534;-122.308;2023-10-19T08:53:46;3.40;;;2.40;;
81382;SDS011;70834;37.534;-122.308;2023-10-19T09:02:43;8.95;;;2.55;;
81382;SDS011;70834;37.534;-122.308;2023-10-19T09:05:08;6.78;;;2.80;;
81382;SDS011;70834;37.534;-122.308;2023-10-19T09:07:40;6.07;;;2.67;;
81382;SDS011;70834;37.534;-122.308;2023-10-19T09:10:02;6.30;;;3.10;;
81382;SDS011;70834;37.534;-122.308;2023-10-19T09:12:26;3.60;;;2.45;;
81382;SDS011;70834;37.534;-122.308;2023-10-19T09:14:47;6.95;;;2.33;;
81382;SDS011;70834;37.534;-122.308;2023-10-19T09:17:10;3.97;;;2.50;;
81382;SDS011;70834;37.534;-122.308;2023-10-19T09:19:41;3.83;;;2.47;;
81382;SDS011;70834;37.534;-122.308;2023-10-19T09:22:04;6.00;;;2.60;;
81382;SDS011;70834;37.534;-122.308;2023-10-19T09:24:44;3.13;;;2.33;;
81382;SDS011;70834;37.534;-122.308;2023-10-19T09:27:06;6.72;;;2.40;;
81382;SDS011;70834;37.534;-122.308;2023-10-19T09:29:28;3.92;;;2.50;;
81382;SDS011;70834;37.534;-122.308;2023-10-19T09:31:49;3.72;;;2.67;;
81382;SDS011;70834;37.534;-122.308;2023-10-19T09:34:11;4.47;;;2.85;;
81382;SDS011;70834;37.534;-122.308;2023-10-19T09:36:33;4.82;;;2.20;;
81382;SDS011;70834;37.534;-122.308;2023-10-19T09:38:55;4.90;;;2.58;;
81382;SDS011;70834;37.534;-122.308;2023-10-19T09:41:18;5.85;;;2.33;;
81382;SDS011;70834;37.534;-122.308;2023-10-19T09:43:49;7.47;;;2.50;;
81382;SDS011;70834;37.534;-122.308;2023-10-19T09:46:11;7.28;;;2.58;;
81382;SDS011;70834;37.534;-122.308;2023-10-19T09:48:40;5.68;;;2.28;;
81382;SDS011;70834;37.534;-122.308;2023-10-19T09:51:06;4.35;;;2.83;;
81382;SDS011;70834;37.534;-122.308;2023-10-19T09:53:29;5.25;;;2.45;;
81382;SDS011;70834;37.534;-122.308;2023-10-19T09:55:57;7.63;;;3.25;;
81382;SDS011;70834;37.534;-122.308;2023-10-19T09:58:20;5.88;;;2.30;;
81382;SDS011;70834;37.534;-122.308;2023-10-19T10:00:46;6.00;;;3.20;;
81382;SDS011;70834;37.534;-122.308;2023-10-19T10:06:12;5.10;;;2.47;;
81382;SDS011;70834;37.534;-122.308;2023-10-19T10:08:44;9.57;;;2.75;;
81382;SDS011;70834;37.534;-122.308;2023-10-19T10:11:24;5.85;;;2.50;;
81382;SDS011;70834;37.534;-122.308;2023-10-19T10:13:47;6.05;;;2.88;;
81382;SDS011;70834;37.534;-122.308;2023-10-19T10:16:13;7.23;;;2.77;;
81382;SDS011;70834;37.534;-122.308;2023-10-19T10:18:35;4.97;;;2.42;;
81382;SDS011;70834;37.534;-122.308;2023-10-19T10:21:12;6.78;;;2.60;;
81382;SDS011;70834;37.534;-122.308;2023-10-19T10:23:40;5.47;;;2.80;;
81382;SDS011;70834;37.534;-122.308;2023-10-19T10:26:03;6.03;;;2.50;;
81382;SDS011;70834;37.534;-122.308;2023-10-19T10:28:26;5.72;;;2.53;;
81382;SDS011;70834;37.534;-122.308;2023-10-19T10:33:42;5.30;;;2.25;;
81382;SDS011;70834;37.534;-122.308;2023-10-19T10:36:06;4.95;;;2.78;;
81382;SDS011;70834;37.534;-122.308;2023-10-19T10:38:28;8.15;;;2.70;;
81382;SDS011;70834;37.534;-122.308;2023-10-19T10:40:55;4.75;;;2.30;;
81382;SDS011;70834;37.534;-122.308;2023-10-19T10:43:18;6.00;;;2.60;;
81382;SDS011;70834;37.534;-122.308;2023-10-19T10:45:39;5.05;;;2.65;;
81382;SDS011;70834;37.534;-122.308;2023-10-19T10:48:01;8.63;;;2.90;;
81382;SDS011;70834;37.534;-122.308;2023-10-19T10:50:24;5.53;;;2.85;;
81382;SDS011;70834;37.534;-122.308;2023-10-19T10:52:45;5.25;;;2.72;;
81382;SDS011;70834;37.534;-122.308;2023-10-19T10:55:12;6.65;;;2.47;;
81382;SDS011;70834;37.534;-122.308;2023-10-19T10:57:34;5.38;;;2.70;;
81382;SDS011;70834;37.534;-122.308;2023-10-19T11:00:09;6.20;;;2.80;;
81382;SDS011;70834;37.534;-122.308;2023-10-19T11:02:35;13.82;;;2.90;;
81382;SDS011;70834;37.534;-122.308;2023-10-19T11:05:02;7.00;;;2.50;;
81382;SDS011;70834;37.534;-122.308;2023-10-19T11:07:24;6.93;;;2.60;;
81382;SDS011;70834;37.534;-122.308;2023-10-19T11:09:46;4.13;;;2.50;;
81382;SDS011;70834;37.534;-122.308;2023-10-19T11:12:10;4.60;;;3.08;;
81382;SDS011;70834;37.534;-122.308;2023-10-19T11:14:35;7.80;;;2.75;;
81382;SDS011;70834;37.534;-122.308;2023-10-19T11:17:11;7.50;;;3.13;;
81382;SDS011;70834;37.534;-122.308;2023-10-19T11:19:38;7.93;;;2.80;;
81382;SDS011;70834;37.534;-122.308;2023-10-19T11:22:00;5.35;;;2.53;;
81382;SDS011;70834;37.534;-122.308;2023-10-19T11:24:26;4.78;;;2.65;;
81382;SDS011;70834;37.534;-122.308;2023-10-19T11:26:50;4.43;;;2.40;;
81382;SDS011;70834;37.534;-122.308;2023-10-19T11:29:16;6.32;;;2.78;;
81382;SDS011;70834;37.534;-122.308;2023-10-19T11:31:37;6.13;;;2.63;;
81382;SDS011;70834;37.534;-122.308;2023-10-19T11:33:59;6.80;;;2.65;;
81382;SDS011;70834;37.534;-122.308;2023-10-19T11:36:21;7.50;;;2.40;;
81382;SDS011;70834;37.534;-122.308;2023-10-19T11:38:44;5.18;;;2.45;;
81382;SDS011;70834;37.534;-122.308;2023-10-19T11:41:08;8.32;;;3.28;;
81382;SDS011;70834;37.534;-122.308;2023-10-19T11:43:29;8.15;;;2.55;;
81382;SDS011;70834;37.534;-122.308;2023-10-19T11:45:51;3.97;;;2.50;;
81382;SDS011;70834;37.534;-122.308;2023-10-19T11:48:13;5.93;;;2.33;;
81382;SDS011;70834;37.534;-122.308;2023-10-19T11:50:36;6.50;;;2.92;;
81382;SDS011;70834;37.534;-122.308;2023-10-19T11:52:57;5.43;;;2.78;;
81382;SDS011;70834;37.534;-122.308;2023-10-19T11:55:18;6.53;;;2.83;;
81382;SDS011;70834;37.534;-122.308;2023-10-19T11:57:44;9.93;;;3.08;;
81382;SDS011;70834;37.534;-122.308;2023-10-19T12:00:06;9.50;;;3.25;;
81382;SDS011;70834;37.534;-122.308;2023-10-19T12:02:37;5.22;;;3.00;;
81382;SDS011;70834;37.534;-122.308;2023-10-19T12:04:58;5.25;;;2.85;;
81382;SDS011;70834;37.534;-122.308;2023-10-19T12:07:20;7.07;;;3.33;;
81382;SDS011;70834;37.534;-122.308;2023-10-19T12:09:42;7.60;;;2.97;;
81382;SDS011;70834;37.534;-122.308;2023-10-19T12:12:05;4.55;;;2.67;;
81382;SDS011;70834;37.534;-122.308;2023-10-19T12:14:27;7.93;;;3.08;;
81382;SDS011;70834;37.534;-122.308;2023-10-19T12:16:49;4.53;;;2.83;;
81382;SDS011;70834;37.534;-122.308;2023-10-19T12:19:10;6.65;;;2.92;;
81382;SDS011;70834;37.534;-122.308;2023-10-19T12:21:32;6.10;;;3.38;;
81382;SDS011;70834;37.534;-122.308;2023-10-19T12:23:57;7.20;;;3.40;;
81382;SDS011;70834;37.534;-122.308;2023-10-19T12:26:21;7.25;;;3.20;;
81382;SDS011;70834;37.534;-122.308;2023-10-19T12:28:43;5.03;;;3.15;;
81382;SDS011;70834;37.534;-122.308;2023-10-19T12:31:07;7.72;;;3.10;;
81382;SDS011;70834;37.534;-122.308;2023-10-19T12:33:29;6.38;;;3.40;;
81382;SDS011;70834;37.534;-122.308;2023-10-19T12:35:50;6.70;;;3.65;;
81382;SDS011;70834;37.534;-122.308;2023-10-19T12:38:12;7.35;;;3.28;;
81382;SDS011;70834;37.534;-122.308;2023-10-19T12:40:36;7.57;;;3.03;;
81382;SDS011;70834;37.534;-122.308;2023-10-19T12:42:58;8.15;;;3.50;;
81382;SDS011;70834;37.534;-122.308;2023-10-19T12:45:24;6.93;;;2.90;;
81382;SDS011;70834;37.534;-122.308;2023-10-19T12:47:46;7.85;;;3.05;;
81382;SDS011;70834;37.534;-122.308;2023-10-19T12:50:07;6.40;;;3.03;;
81382;SDS011;70834;37.534;-122.308;2023-10-19T12:52:29;3.95;;;2.85;;
81382;SDS011;70834;37.534;-122.308;2023-10-19T12:54:56;8.02;;;3.15;;
81382;SDS011;70834;37.534;-122.308;2023-10-19T12:57:21;9.30;;;2.85;;
81382;SDS011;70834;37.534;-122.308;2023-10-19T12:59:44;10.95;;;3.65;;
81382;SDS011;70834;37.534;-122.308;2023-10-19T13:02:05;6.18;;;3.00;;
81382;SDS011;70834;37.534;-122.308;2023-10-19T13:04:29;8.57;;;3.35;;
81382;SDS011;70834;37.534;-122.308;2023-10-19T13:06:51;7.25;;;3.75;;
81382;SDS011;70834;37.534;-122.308;2023-10-19T13:09:17;9.55;;;3.72;;
81382;SDS011;70834;37.534;-122.308;2023-10-19T13:11:51;10.05;;;3.88;;
81382;SDS011;70834;37.534;-122.308;2023-10-19T13:14:12;9.02;;;3.75;;
81382;SDS011;70834;37.534;-122.308;2023-10-19T13:16:34;8.15;;;3.22;;
81382;SDS011;70834;37.534;-122.308;2023-10-19T13:18:56;11.25;;;3.75;;
81382;SDS011;70834;37.534;-122.308;2023-10-19T13:21:17;7.38;;;3.30;;
81382;SDS011;70834;37.534;-122.308;2023-10-19T13:23:42;7.50;;;3.17;;
81382;SDS011;70834;37.534;-122.308;2023-10-19T13:26:04;8.70;;;3.30;;
81382;SDS011;70834;37.534;-122.308;2023-10-19T13:28:29;9.07;;;3.58;;
81382;SDS011;70834;37.534;-122.308;2023-10-19T13:30:51;7.78;;;3.20;;
81382;SDS011;70834;37.534;-122.308;2023-10-19T13:33:14;6.50;;;3.47;;
81382;SDS011;70834;37.534;-122.308;2023-10-19T13:35:37;9.18;;;3.47;;
81382;SDS011;70834;37.534;-122.308;2023-10-19T13:37:59;5.55;;;2.95;;
81382;SDS011;70834;37.534;-122.308;2023-10-19T13:40:20;5.07;;;2.97;;
81382;SDS011;70834;37.534;-122.308;2023-10-19T13:42:43;9.75;;;4.38;;
81382;SDS011;70834;37.534;-122.308;2023-10-19T13:45:07;10.43;;;3.25;;
81382;SDS011;70834;37.534;-122.308;2023-10-19T13:47:32;9.55;;;3.58;;
81382;SDS011;70834;37.534;-122.308;2023-10-19T13:49:53;6.20;;;3.05;;
81382;SDS011;70834;37.534;-122.308;2023-10-19T13:52:15;10.48;;;3.88;;
81382;SDS011;70834;37.534;-122.308;2023-10-19T13:54:36;10.35;;;3.70;;
81382;SDS011;70834;37.534;-122.308;2023-10-19T13:56:58;5.43;;;3.85;;
81382;SDS011;70834;37.534;-122.308;2023-10-19T13:59:19;13.98;;;4.45;;
81382;SDS011;70834;37.534;-122.308;2023-10-19T14:01:41;9.10;;;3.72;;
81382;SDS011;70834;37.534;-122.308;2023-10-19T14:04:03;6.20;;;3.28;;
81382;SDS011;70834;37.534;-122.308;2023-10-19T14:06:24;6.85;;;3.15;;
81382;SDS011;70834;37.534;-122.308;2023-10-19T14:08:46;11.63;;;4.65;;
81382;SDS011;70834;37.534;-122.308;2023-10-19T14:11:07;8.93;;;3.42;;
81382;SDS011;70834;37.534;-122.308;2023-10-19T14:13:29;8.38;;;4.03;;